createdAt,value
2022-08-30T00:01:03.701Z,75.79
2022-08-30T00:03:32.535Z,75.87
2022-08-30T00:06:00.585Z,75.91
2022-08-30T00:08:27.091Z,76.60
2022-08-30T00:10:53.574Z,76.49
2022-08-30T00:13:21.048Z,76.61
2022-08-30T00:15:48.603Z,76.37
2022-08-30T00:18:18.085Z,76.36
2022-08-30T00:20:46.235Z,76.70
2022-08-30T00:23:13.560Z,76.68
2022-08-30T00:25:40.675Z,76.46
2022-08-30T00:28:07.132Z,77.07
2022-08-30T00:30:33.642Z,76.54
2022-08-30T00:33:00.119Z,76.93
2022-08-30T00:35:26.924Z,77.34
2022-08-30T00:37:53.390Z,77.04
2022-08-30T00:40:27.319Z,77.18
2022-08-30T00:42:59.246Z,77.18
2022-08-30T00:45:33.801Z,77.03
2022-08-30T00:48:00.715Z,77.60
2022-08-30T00:50:41.538Z,77.13
2022-08-30T00:53:13.561Z,77.22
2022-08-30T00:55:43.137Z,76.99
2022-08-30T00:58:16.642Z,77.45
2022-08-30T01:00:44.069Z,77.04
2022-08-30T01:03:10.698Z,77.47
2022-08-30T01:05:38.979Z,77.70
2022-08-30T01:08:06.688Z,77.60
2022-08-30T01:10:35.793Z,76.95
2022-08-30T01:13:02.918Z,77.35
2022-08-30T01:15:30.255Z,77.52
2022-08-30T01:17:57.008Z,77.67
2022-08-30T01:20:33.081Z,77.81
2022-08-30T01:23:10.307Z,77.39
2022-08-30T01:25:37.924Z,77.86
2022-08-30T01:28:11.352Z,78.20
2022-08-30T01:30:40.053Z,77.84
2022-08-30T01:33:08.288Z,78.51
2022-08-30T01:35:43.432Z,77.83
2022-08-30T01:38:11.408Z,78.01
2022-08-30T01:40:38.311Z,78.80
2022-08-30T01:43:05.546Z,78.01
2022-08-30T01:45:31.909Z,78.17
2022-08-30T01:47:58.689Z,78.45
2022-08-30T01:50:29.192Z,78.39
2022-08-30T01:52:55.618Z,78.29
2022-08-30T01:55:22.068Z,78.46
2022-08-30T01:57:49.725Z,78.51
2022-08-30T02:00:17.761Z,78.10
2022-08-30T02:02:44.544Z,78.01
2022-08-30T02:05:11.733Z,79.16
2022-08-30T02:07:38.129Z,78.87
2022-08-30T02:10:05.137Z,78.86
2022-08-30T02:12:31.576Z,78.98
2022-08-30T02:14:58.044Z,78.44
2022-08-30T02:17:24.622Z,78.36
2022-08-30T02:19:51.002Z,78.97
2022-08-30T02:22:17.682Z,79.16
2022-08-30T02:24:44.175Z,78.60
2022-08-30T02:27:10.531Z,79.46
2022-08-30T02:29:36.956Z,79.23
2022-08-30T02:32:04.171Z,78.61
2022-08-30T02:34:30.851Z,79.59
2022-08-30T02:36:57.216Z,79.29
2022-08-30T02:39:23.661Z,79.81
2022-08-30T02:41:50.130Z,79.62
2022-08-30T02:44:16.617Z,80.16
2022-08-30T02:46:43.192Z,79.44
2022-08-30T02:49:32.045Z,79.94
2022-08-30T02:51:56.160Z,79.58
2022-08-30T02:54:22.633Z,79.51
2022-08-30T02:56:50.499Z,79.72
2022-08-30T02:59:18.423Z,79.39
2022-08-30T03:01:45.368Z,79.78
2022-08-30T03:04:11.994Z,79.95
2022-08-30T03:06:38.742Z,79.77
2022-08-30T03:09:05.195Z,79.78
2022-08-30T03:11:31.991Z,80.03
2022-08-30T03:13:58.410Z,79.86
2022-08-30T03:16:24.956Z,79.80
2022-08-30T03:18:51.353Z,79.71
2022-08-30T03:21:17.899Z,79.49
2022-08-30T03:23:45.093Z,80.33
2022-08-30T03:26:13.136Z,80.04
2022-08-30T03:28:39.535Z,79.80
2022-08-30T03:31:06.199Z,80.09
2022-08-30T03:33:32.802Z,80.16
2022-08-30T03:35:59.198Z,79.84
2022-08-30T03:38:26.085Z,80.55
2022-08-30T03:40:52.605Z,79.99
2022-08-30T03:43:19.269Z,80.60
2022-08-30T03:45:46.084Z,80.60
2022-08-30T03:48:12.928Z,80.18
2022-08-30T03:50:40.690Z,80.58
2022-08-30T03:53:07.297Z,81.12
2022-08-30T03:55:34.245Z,80.72
2022-08-30T03:58:00.760Z,80.33
2022-08-30T04:00:27.503Z,80.85
2022-08-30T04:02:53.946Z,80.71
2022-08-30T04:05:20.512Z,80.72
2022-08-30T04:07:46.986Z,80.95
2022-08-30T04:10:13.399Z,80.92
2022-08-30T04:12:39.818Z,80.72
2022-08-30T04:15:08.027Z,80.39
2022-08-30T04:17:34.514Z,81.20
2022-08-30T04:20:00.893Z,80.90
2022-08-30T04:22:27.422Z,80.81
2022-08-30T04:24:53.916Z,81.21
2022-08-30T04:27:20.511Z,81.08
2022-08-30T04:29:47.639Z,81.33
2022-08-30T04:32:14.649Z,80.89
2022-08-30T04:34:41.070Z,80.60
2022-08-30T04:37:09.911Z,80.84
2022-08-30T04:39:36.566Z,80.73
2022-08-30T04:42:03.432Z,80.68
2022-08-30T04:44:32.002Z,80.88
2022-08-30T04:46:59.057Z,81.12
2022-08-30T04:49:25.475Z,81.43
2022-08-30T04:51:51.968Z,81.21
2022-08-30T04:54:18.391Z,80.71
2022-08-30T04:56:44.785Z,81.08
2022-08-30T04:59:11.294Z,81.40
2022-08-30T05:01:45.429Z,81.08
2022-08-30T05:04:13.392Z,80.92
2022-08-30T05:06:39.850Z,80.93
2022-08-30T05:09:06.289Z,81.24
2022-08-30T05:11:32.913Z,81.06
2022-08-30T05:13:59.333Z,81.23
2022-08-30T05:16:26.022Z,81.11
2022-08-30T05:18:53.825Z,80.92
2022-08-30T05:21:25.349Z,81.21
2022-08-30T05:23:54.375Z,80.51
2022-08-30T05:26:24.289Z,80.70
2022-08-30T05:28:52.503Z,80.91
2022-08-30T05:31:29.472Z,80.66
2022-08-30T05:33:56.742Z,80.32
2022-08-30T05:36:26.372Z,80.64
2022-08-30T05:38:54.782Z,80.96
2022-08-30T05:41:23.239Z,80.29
2022-08-30T05:43:58.431Z,81.01
2022-08-30T05:46:29.496Z,80.53
2022-08-30T05:48:57.456Z,80.26
2022-08-30T05:51:26.529Z,80.43
2022-08-30T05:53:54.091Z,80.09
2022-08-30T05:56:26.996Z,80.60
2022-08-30T05:58:54.667Z,79.62
2022-08-30T06:01:24.852Z,80.00
2022-08-30T06:03:52.393Z,80.19
2022-08-30T06:06:18.811Z,80.13
2022-08-30T06:08:47.393Z,79.48
2022-08-30T06:11:17.132Z,79.25
2022-08-30T06:13:43.533Z,79.18
2022-08-30T06:16:15.724Z,78.86
2022-08-30T06:18:42.648Z,78.94
2022-08-30T06:21:15.361Z,78.91
2022-08-30T06:23:41.740Z,78.26
2022-08-30T06:26:08.185Z,77.87
2022-08-30T06:28:34.816Z,76.79
2022-08-30T06:31:01.203Z,75.87
2022-08-30T06:33:27.621Z,74.96
2022-08-30T06:35:59.094Z,74.64
2022-08-30T06:38:26.864Z,73.96
2022-08-30T06:40:53.267Z,73.79
2022-08-30T06:43:20.764Z,73.77
2022-08-30T06:45:47.182Z,73.67
2022-08-30T06:48:13.644Z,73.52
2022-08-30T06:50:42.079Z,73.55
2022-08-30T06:53:09.641Z,73.63
2022-08-30T06:55:36.433Z,73.06
2022-08-30T06:58:04.426Z,72.75
2022-08-30T07:00:31.079Z,72.83
2022-08-30T07:02:58.096Z,72.55
2022-08-30T07:05:24.616Z,72.68
2022-08-30T07:07:53.904Z,71.49
2022-08-30T07:10:21.376Z,71.92
2022-08-30T07:12:48.290Z,70.42
2022-08-30T07:15:14.977Z,70.53
2022-08-30T07:18:00.123Z,70.50
2022-08-30T07:20:26.887Z,69.97
2022-08-30T07:22:53.287Z,68.94
2022-08-30T07:25:20.021Z,68.63
2022-08-30T07:27:46.711Z,67.18
2022-08-30T07:30:14.069Z,67.72
2022-08-30T07:32:40.618Z,66.66
2022-08-30T07:35:07.367Z,67.16
2022-08-30T07:37:34.077Z,66.18
2022-08-30T07:40:00.619Z,65.50
2022-08-30T07:42:27.322Z,64.13
2022-08-30T07:44:56.637Z,63.98
2022-08-30T07:47:23.336Z,63.55
2022-08-30T07:49:49.831Z,63.62
2022-08-30T07:52:16.312Z,62.86
2022-08-30T07:54:42.998Z,62.03
2022-08-30T07:57:09.990Z,61.16
2022-08-30T07:59:36.467Z,60.63
2022-08-30T08:02:03.266Z,60.37
2022-08-30T08:04:29.861Z,58.32
2022-08-30T08:06:56.255Z,58.96
2022-08-30T08:09:22.652Z,59.51
2022-08-30T08:11:49.140Z,59.55
2022-08-30T08:16:47.060Z,59.20
2022-08-30T08:19:13.610Z,57.67
2022-08-30T08:21:40.137Z,57.92
2022-08-30T08:24:07.753Z,58.28
2022-08-30T08:26:36.767Z,56.71
2022-08-30T08:29:04.259Z,56.85
2022-08-30T08:31:33.825Z,57.52
2022-08-30T08:34:02.806Z,56.13
2022-08-30T08:36:31.167Z,55.20
2022-08-30T08:38:57.869Z,55.78
2022-08-30T08:41:30.232Z,55.35
2022-08-30T08:43:57.134Z,55.20
2022-08-30T08:46:40.364Z,55.14
2022-08-30T08:49:12.714Z,54.11
2022-08-30T08:51:59.183Z,53.10
2022-08-30T08:54:42.284Z,54.00
2022-08-30T08:57:13.799Z,52.62
2022-08-30T08:59:43.383Z,52.76
2022-08-30T09:02:36.236Z,52.86
2022-08-30T09:05:03.723Z,51.73
2022-08-30T09:07:37.024Z,51.25
2022-08-30T09:10:04.478Z,52.07
2022-08-30T09:12:31.193Z,51.37
2022-08-30T09:15:17.313Z,51.17
2022-08-30T09:17:54.827Z,51.55
2022-08-30T09:20:25.843Z,50.88
2022-08-30T09:22:52.279Z,50.37
2022-08-30T09:25:30.264Z,50.41
2022-08-30T09:28:16.223Z,50.82
2022-08-30T09:31:01.044Z,50.01
2022-08-30T09:33:28.820Z,49.49
2022-08-30T09:35:55.394Z,49.71
2022-08-30T09:38:29.960Z,50.13
2022-08-30T09:40:58.932Z,49.26
2022-08-30T09:43:28.540Z,49.54
2022-08-30T09:46:00.889Z,50.01
2022-08-30T09:48:35.261Z,49.71
2022-08-30T09:51:11.540Z,49.63
2022-08-30T09:54:00.984Z,48.68
2022-08-30T09:56:55.587Z,47.80
2022-08-30T09:59:46.733Z,48.99
2022-08-30T10:02:43.144Z,47.51
2022-08-30T10:05:19.995Z,47.48
2022-08-30T10:08:17.905Z,48.49
2022-08-30T10:10:50.647Z,48.13
2022-08-30T10:13:28.631Z,48.26
2022-08-30T10:16:00.498Z,47.71
2022-08-30T10:18:27.020Z,48.25
2022-08-30T10:21:09.752Z,47.31
2022-08-30T10:24:01.293Z,47.40
2022-08-30T10:26:37.193Z,46.55
2022-08-30T10:29:09.927Z,46.54
2022-08-30T10:31:46.047Z,46.68
2022-08-30T10:34:20.212Z,45.68
2022-08-30T10:37:01.193Z,46.13
2022-08-30T10:39:31.997Z,46.34
2022-08-30T10:42:16.443Z,45.80
2022-08-30T10:44:47.927Z,44.65
2022-08-30T10:47:23.189Z,44.98
2022-08-30T10:49:57.400Z,45.26
2022-08-30T10:52:39.923Z,45.55
2022-08-30T10:55:31.181Z,45.17
2022-08-30T10:58:03.803Z,44.98
2022-08-30T11:00:39.227Z,44.84
2022-08-30T11:03:36.318Z,44.00
2022-08-30T11:06:12.126Z,44.93
2022-08-30T11:09:16.688Z,43.33
2022-08-30T11:12:12.105Z,43.59
2022-08-30T11:14:43.303Z,43.89
2022-08-30T11:17:26.249Z,43.84
2022-08-30T11:19:55.310Z,44.48
2022-08-30T11:22:38.137Z,44.62
2022-08-30T11:25:38.805Z,43.37
2022-08-30T11:28:06.342Z,44.46
2022-08-30T11:30:33.174Z,43.84
2022-08-30T11:32:59.759Z,44.49
2022-08-30T11:35:48.197Z,44.75
2022-08-30T11:38:20.722Z,44.91
2022-08-30T11:40:50.836Z,44.82
2022-08-30T11:43:36.814Z,45.19
2022-08-30T11:46:27.262Z,44.12
2022-08-30T11:49:02.398Z,45.47
2022-08-30T11:51:46.683Z,44.16
2022-08-30T11:54:58.444Z,45.10
2022-08-30T11:58:00.258Z,44.48
2022-08-30T12:00:29.703Z,44.09
2022-08-30T12:03:02.322Z,44.62
2022-08-30T12:05:38.567Z,43.93
2022-08-30T12:08:28.054Z,44.00
2022-08-30T12:10:58.426Z,43.71
2022-08-30T12:13:34.120Z,43.90
2022-08-30T12:16:05.102Z,44.87
2022-08-30T12:18:37.403Z,44.74
2022-08-30T12:21:19.968Z,44.02
2022-08-30T12:24:03.975Z,44.38
2022-08-30T12:26:35.628Z,44.44
2022-08-30T12:29:20.494Z,44.58
2022-08-30T12:32:08.209Z,44.51
2022-08-30T12:34:40.484Z,43.92
2022-08-30T12:37:19.712Z,43.90
2022-08-30T12:39:47.182Z,43.48
2022-08-30T12:42:27.142Z,43.34
2022-08-30T12:45:00.804Z,44.45
2022-08-30T12:47:33.868Z,43.12
2022-08-30T12:50:01.382Z,42.92
2022-08-30T12:52:29.361Z,43.12
2022-08-30T12:55:17.291Z,42.41
2022-08-30T12:58:00.497Z,42.63
2022-08-30T13:00:32.456Z,41.49
2022-08-30T13:03:23.076Z,42.79
2022-08-30T13:05:53.126Z,42.25
2022-08-30T13:08:28.278Z,41.49
2022-08-30T13:11:04.438Z,41.91
2022-08-30T13:13:38.287Z,41.36
2022-08-30T13:16:29.938Z,41.14
2022-08-30T13:19:35.570Z,41.45
2022-08-30T13:22:03.166Z,41.94
2022-08-30T13:24:29.776Z,41.24
2022-08-30T13:27:02.196Z,41.69
2022-08-30T13:29:29.655Z,40.79
2022-08-30T13:31:56.739Z,41.80
2022-08-30T13:34:23.564Z,40.30
2022-08-30T13:36:53.603Z,40.45
2022-08-30T13:39:21.758Z,40.75
2022-08-30T13:41:48.470Z,40.23
2022-08-30T13:44:15.887Z,40.61
2022-08-30T13:46:53.426Z,40.37
2022-08-30T13:49:45.779Z,40.57
2022-08-30T13:52:20.912Z,39.74
2022-08-30T13:54:53.317Z,39.87
2022-08-30T14:00:17.696Z,39.99
2022-08-30T14:02:49.058Z,39.45
2022-08-30T14:05:46.967Z,39.00
2022-08-30T14:08:05.452Z,38.32
2022-08-30T14:10:35.313Z,38.10
2022-08-30T14:13:14.014Z,37.51
2022-08-30T14:15:41.382Z,36.85
2022-08-30T14:18:08.442Z,37.49
2022-08-30T14:20:38.440Z,37.51
2022-08-30T14:23:09.880Z,37.72
2022-08-30T14:25:37.770Z,37.65
2022-08-30T14:28:08.129Z,37.38
2022-08-30T14:30:36.139Z,37.66
2022-08-30T14:33:03.135Z,38.11
2022-08-30T14:35:29.809Z,36.95
2022-08-30T14:37:56.204Z,36.86
2022-08-30T14:40:23.798Z,35.29
2022-08-30T14:42:50.303Z,34.92
2022-08-30T14:45:16.731Z,34.81
2022-08-30T14:47:43.347Z,33.57
2022-08-30T14:50:10.336Z,34.69
2022-08-30T14:52:37.544Z,33.80
2022-08-30T14:55:08.885Z,34.83
2022-08-30T14:57:35.854Z,35.34
2022-08-30T15:00:08.487Z,34.96
2022-08-30T15:02:34.876Z,35.39
2022-08-30T15:05:01.650Z,34.49
2022-08-30T15:07:28.078Z,34.78
2022-08-30T15:09:54.627Z,34.42
2022-08-30T15:12:21.205Z,35.95
2022-08-30T15:14:47.617Z,37.15
2022-08-30T15:17:14.081Z,38.44
2022-08-30T15:19:41.802Z,37.41
2022-08-30T15:22:09.112Z,38.53
2022-08-30T15:24:35.975Z,39.37
2022-08-30T15:27:03.354Z,39.07
2022-08-30T15:29:31.704Z,39.97
2022-08-30T15:31:59.284Z,38.86
2022-08-30T15:34:26.198Z,39.37
2022-08-30T15:36:54.945Z,39.40
2022-08-30T15:39:21.426Z,38.56
2022-08-30T15:41:54.617Z,39.66
2022-08-30T15:44:23.651Z,40.26
2022-08-30T15:46:50.177Z,40.13
2022-08-30T15:49:22.500Z,40.02
2022-08-30T15:51:51.617Z,40.65
2022-08-30T15:54:22.649Z,41.31
2022-08-30T15:56:49.158Z,40.90
2022-08-30T15:59:15.725Z,40.72
2022-08-30T16:01:42.980Z,40.82
2022-08-30T16:04:10.128Z,40.76
2022-08-30T16:06:37.609Z,41.54
2022-08-30T16:09:05.984Z,39.82
2022-08-30T16:11:33.058Z,40.56
2022-08-30T16:14:01.285Z,40.30
2022-08-30T16:16:27.836Z,41.29
2022-08-30T16:18:55.335Z,41.01
2022-08-30T16:21:32.001Z,40.57
2022-08-30T16:24:01.051Z,40.98
2022-08-30T16:26:29.539Z,41.62
2022-08-30T16:28:56.738Z,41.16
2022-08-30T16:31:26.675Z,40.65
2022-08-30T16:33:53.999Z,40.85
2022-08-30T16:36:21.808Z,41.13
2022-08-30T16:38:49.030Z,41.20
2022-08-30T16:41:21.026Z,40.38
2022-08-30T16:43:49.654Z,40.71
2022-08-30T16:46:22.913Z,41.18
2022-08-30T16:48:50.117Z,41.43
2022-08-30T16:51:19.491Z,40.60
2022-08-30T16:53:46.203Z,41.21
2022-08-30T16:56:19.679Z,41.32
2022-08-30T16:58:47.614Z,41.19
2022-08-30T17:01:14.977Z,41.38
2022-08-30T17:03:43.791Z,41.85
2022-08-30T17:06:10.532Z,41.76
2022-08-30T17:08:37.345Z,41.69
2022-08-30T17:11:06.397Z,41.95
2022-08-30T17:13:35.772Z,42.19
2022-08-30T17:16:04.404Z,41.73
2022-08-30T17:18:30.910Z,42.26
2022-08-30T17:20:58.253Z,42.04
2022-08-30T17:23:25.044Z,42.16
2022-08-30T17:25:51.478Z,43.17
2022-08-30T17:28:18.207Z,43.09
2022-08-30T17:30:48.441Z,43.18
2022-08-30T17:33:17.753Z,42.70
2022-08-30T17:35:44.938Z,43.17
2022-08-30T17:38:12.040Z,43.71
2022-08-30T17:40:38.487Z,43.56
2022-08-30T17:43:07.927Z,44.06
2022-08-30T17:45:34.326Z,44.17
2022-08-30T17:48:01.860Z,44.64
2022-08-30T17:53:17.766Z,44.29
2022-08-30T17:55:48.985Z,45.02
2022-08-30T17:58:15.962Z,45.05
2022-08-30T18:00:43.297Z,45.39
2022-08-30T18:03:09.805Z,45.65
2022-08-30T18:05:38.353Z,45.47
2022-08-30T18:08:05.282Z,45.75
2022-08-30T18:10:33.005Z,46.09
2022-08-30T18:13:01.164Z,45.91
2022-08-30T18:15:27.855Z,45.80
2022-08-30T18:17:54.303Z,46.68
2022-08-30T18:20:20.943Z,46.70
2022-08-30T18:22:52.718Z,46.44
2022-08-30T18:25:19.862Z,47.10
2022-08-30T18:27:57.108Z,47.03
2022-08-30T18:30:31.174Z,47.37
2022-08-30T18:33:00.572Z,47.18
2022-08-30T18:35:27.324Z,47.61
2022-08-30T18:37:53.812Z,47.70
2022-08-30T18:40:20.492Z,48.10
2022-08-30T18:42:47.586Z,47.60
2022-08-30T18:45:14.702Z,48.41
2022-08-30T18:47:41.761Z,48.18
2022-08-30T18:50:08.421Z,48.43
2022-08-30T18:52:35.365Z,48.26
2022-08-30T18:55:02.343Z,48.50
2022-08-30T18:57:28.854Z,48.63
2022-08-30T18:59:57.578Z,48.75
2022-08-30T19:02:27.573Z,49.31
2022-08-30T19:04:54.783Z,49.00
2022-08-30T19:07:22.496Z,49.25
2022-08-30T19:09:55.544Z,49.74
2022-08-30T19:12:26.082Z,49.55
2022-08-30T19:14:54.080Z,50.28
2022-08-30T19:17:20.512Z,50.40
2022-08-30T19:19:49.105Z,50.77
2022-08-30T19:22:20.332Z,51.26
2022-08-30T19:24:49.753Z,51.18
2022-08-30T19:27:19.117Z,51.91
2022-08-30T19:29:48.199Z,52.12
2022-08-30T19:32:20.194Z,52.29
2022-08-30T19:34:46.582Z,52.67
2022-08-30T19:37:14.669Z,52.51
2022-08-30T19:39:45.259Z,53.20
2022-08-30T19:42:14.052Z,53.07
2022-08-30T19:44:40.533Z,53.67
2022-08-30T19:47:07.714Z,53.34
2022-08-30T19:49:35.234Z,53.52
2022-08-30T19:52:01.872Z,53.89
2022-08-30T19:54:28.290Z,54.56
2022-08-30T19:56:54.738Z,54.89
2022-08-30T19:59:21.205Z,55.45
2022-08-30T20:01:47.895Z,56.17
2022-08-30T20:04:15.914Z,57.08
2022-08-30T20:06:42.465Z,57.29
2022-08-30T20:09:10.595Z,57.91
2022-08-30T20:11:38.800Z,58.28
2022-08-30T20:14:06.155Z,58.49
2022-08-30T20:16:37.544Z,58.55
2022-08-30T20:19:06.874Z,58.44
2022-08-30T20:21:34.091Z,58.65
2022-08-30T20:24:02.733Z,59.77
2022-08-30T20:26:33.821Z,59.97
2022-08-30T20:29:02.000Z,60.10
2022-08-30T20:31:29.117Z,60.08
2022-08-30T20:33:55.628Z,60.72
2022-08-30T20:36:22.012Z,60.77
2022-08-30T20:38:48.697Z,60.75
2022-08-30T20:41:17.569Z,61.23
2022-08-30T20:43:48.653Z,61.22
2022-08-30T20:46:17.679Z,61.70
2022-08-30T20:48:44.479Z,62.29
2022-08-30T20:51:15.483Z,62.27
2022-08-30T20:53:43.060Z,62.54
2022-08-30T20:56:13.160Z,63.21
2022-08-30T20:58:39.651Z,63.45
2022-08-30T21:01:09.022Z,63.65
2022-08-30T21:03:37.018Z,63.25
2022-08-30T21:06:04.116Z,63.85
2022-08-30T21:08:30.605Z,63.89
2022-08-30T21:10:57.155Z,64.08
2022-08-30T21:13:23.755Z,64.36
2022-08-30T21:15:55.033Z,64.12
2022-08-30T21:18:29.630Z,64.55
2022-08-30T21:20:56.997Z,64.24
2022-08-30T21:23:23.601Z,64.28
2022-08-30T21:25:50.315Z,64.37
2022-08-30T21:28:18.017Z,64.02
2022-08-30T21:30:44.890Z,64.32
2022-08-30T21:33:11.331Z,63.58
2022-08-30T21:35:56.617Z,63.31
2022-08-30T21:38:23.343Z,62.89
2022-08-30T21:40:49.973Z,62.45
2022-08-30T21:43:16.722Z,62.57
2022-08-30T21:45:45.134Z,61.88
2022-08-30T21:48:13.057Z,61.40
2022-08-30T21:50:44.159Z,61.36
2022-08-30T21:53:11.172Z,61.37
2022-08-30T21:55:41.840Z,60.98
2022-08-30T21:58:11.415Z,60.97
2022-08-30T22:00:37.892Z,60.77
2022-08-30T22:03:04.389Z,60.67
2022-08-30T22:05:30.864Z,60.08
2022-08-30T22:07:57.307Z,59.96
2022-08-30T22:10:23.725Z,60.08
2022-08-30T22:12:50.159Z,59.79
2022-08-30T22:15:17.029Z,59.75
2022-08-30T22:17:47.992Z,60.27
2022-08-30T22:20:18.349Z,59.42
2022-08-30T22:22:45.092Z,60.10
2022-08-30T22:25:11.587Z,60.15
2022-08-30T22:27:38.029Z,60.27
2022-08-30T22:30:05.172Z,60.22
2022-08-30T22:32:31.523Z,59.93
2022-08-30T22:34:58.405Z,60.28
2022-08-30T22:37:24.819Z,60.97
2022-08-30T22:39:51.647Z,60.06
2022-08-30T22:42:18.093Z,60.38
2022-08-30T22:44:44.499Z,60.51
2022-08-30T22:47:10.976Z,60.39
2022-08-30T22:49:37.421Z,60.55
2022-08-30T22:52:04.025Z,60.48
2022-08-30T22:54:31.066Z,60.31
2022-08-30T22:56:57.486Z,60.49
2022-08-30T22:59:31.567Z,60.23
2022-08-30T23:01:59.519Z,60.62
2022-08-30T23:04:26.007Z,61.00
2022-08-30T23:06:52.589Z,61.22
2022-08-30T23:09:19.166Z,60.73
2022-08-30T23:11:45.563Z,60.87
2022-08-30T23:14:11.952Z,60.48
2022-08-30T23:16:38.416Z,60.71
2022-08-30T23:19:05.253Z,60.87
2022-08-30T23:21:31.867Z,60.89
2022-08-30T23:24:16.987Z,60.91
2022-08-30T23:27:03.800Z,60.97
2022-08-30T23:29:49.749Z,60.51
2022-08-30T23:32:34.543Z,60.72
2022-08-30T23:35:19.742Z,61.31
2022-08-30T23:38:05.027Z,60.85
2022-08-30T23:40:49.861Z,61.20
2022-08-30T23:43:35.341Z,61.40
2022-08-30T23:46:20.662Z,61.34
2022-08-30T23:49:06.868Z,61.75
2022-08-30T23:51:53.247Z,61.34
2022-08-30T23:54:37.947Z,61.78
2022-08-30T23:57:23.609Z,61.43
